createdAt,value
2018-10-21T00:01:57.108Z,17.70
2018-10-21T00:04:25.488Z,17.50
2018-10-21T00:06:53.836Z,18.07
2018-10-21T00:09:22.532Z,19.07
2018-10-21T00:11:50.900Z,16.07
2018-10-21T00:14:19.263Z,16.70
2018-10-21T00:16:47.576Z,17.00
2018-10-21T00:19:15.989Z,18.03
2018-10-21T00:21:44.349Z,17.47
2018-10-21T00:24:12.695Z,18.40
2018-10-21T00:26:41.017Z,17.67
2018-10-21T00:29:09.340Z,16.40
2018-10-21T00:31:37.665Z,16.83
2018-10-21T00:34:06.054Z,16.93
2018-10-21T00:36:34.396Z,16.20
2018-10-21T00:39:02.767Z,15.73
2018-10-21T00:41:31.117Z,15.13
2018-10-21T00:43:59.441Z,16.77
2018-10-21T00:46:27.788Z,17.13
2018-10-21T00:48:56.181Z,15.70
2018-10-21T00:51:24.504Z,16.07
2018-10-21T00:53:52.880Z,15.20
2018-10-21T00:56:21.365Z,15.60
2018-10-21T00:58:49.724Z,16.50
2018-10-21T01:01:18.114Z,16.27
2018-10-21T01:03:46.446Z,16.23
2018-10-21T01:06:14.817Z,15.20
2018-10-21T01:08:43.156Z,16.15
2018-10-21T01:11:11.579Z,16.97
2018-10-21T01:13:39.967Z,16.30
2018-10-21T01:16:08.338Z,16.93
2018-10-21T01:18:36.683Z,16.52
2018-10-21T01:21:05.240Z,17.00
2018-10-21T01:23:33.571Z,17.00
2018-10-21T01:26:01.927Z,16.37
2018-10-21T01:28:30.309Z,16.48
2018-10-21T01:30:58.676Z,16.62
2018-10-21T01:33:27.075Z,18.20
2018-10-21T01:35:55.431Z,17.80
2018-10-21T01:38:23.823Z,17.37
2018-10-21T01:40:55.732Z,17.30
2018-10-21T01:43:25.286Z,17.45
2018-10-21T01:45:53.833Z,16.48
2018-10-21T01:48:23.221Z,17.73
2018-10-21T01:50:51.589Z,18.23
2018-10-21T01:53:20.583Z,17.52
2018-10-21T01:55:49.025Z,17.87
2018-10-21T01:58:17.416Z,16.77
2018-10-21T02:00:45.916Z,18.83
2018-10-21T02:03:14.406Z,18.42
2018-10-21T02:05:43.460Z,18.95
2018-10-21T02:08:11.866Z,17.27
2018-10-21T02:10:40.249Z,17.82
2018-10-21T02:13:08.683Z,17.70
2018-10-21T02:15:37.061Z,17.77
2018-10-21T02:18:05.595Z,16.70
2018-10-21T02:20:34.033Z,17.65
2018-10-21T02:23:02.435Z,17.10
2018-10-21T02:25:30.804Z,16.90
2018-10-21T02:27:59.176Z,17.50
2018-10-21T02:30:28.572Z,17.00
2018-10-21T02:32:57.471Z,16.30
2018-10-21T02:35:25.837Z,15.78
2018-10-21T02:37:54.728Z,16.70
2018-10-21T02:41:37.317Z,16.50
2018-10-21T02:44:06.902Z,16.12
2018-10-21T02:46:35.865Z,17.40
2018-10-21T02:49:04.970Z,19.70
2018-10-21T02:51:33.392Z,19.42
2018-10-21T02:54:01.736Z,19.42
2018-10-21T02:56:30.147Z,20.30
2018-10-21T02:58:58.539Z,20.60
2018-10-21T03:01:26.977Z,21.15
2018-10-21T03:03:55.440Z,21.90
2018-10-21T03:06:23.824Z,21.02
2018-10-21T03:08:52.188Z,22.07
2018-10-21T03:11:20.540Z,21.05
2018-10-21T03:13:48.942Z,21.50
2018-10-21T03:16:17.301Z,21.60
2018-10-21T03:18:45.703Z,20.15
2018-10-21T03:21:14.162Z,21.45
2018-10-21T03:23:42.462Z,21.12
2018-10-21T03:26:10.821Z,21.55
2018-10-21T03:28:39.144Z,20.77
2018-10-21T03:31:07.476Z,20.05
2018-10-21T03:33:35.963Z,22.07
2018-10-21T03:36:04.217Z,20.70
2018-10-21T03:38:32.637Z,20.30
2018-10-21T03:41:01.057Z,19.62
2018-10-21T03:43:29.419Z,20.35
2018-10-21T03:45:57.797Z,19.50
2018-10-21T03:48:26.153Z,18.57
2018-10-21T03:50:54.956Z,18.62
2018-10-21T03:53:23.476Z,19.30
2018-10-21T03:55:51.874Z,18.95
2018-10-21T03:58:20.242Z,19.48
2018-10-21T04:00:48.594Z,19.23
2018-10-21T04:03:16.968Z,21.00
2018-10-21T04:05:45.345Z,20.77
2018-10-21T04:08:13.716Z,20.32
2018-10-21T04:10:42.058Z,19.95
2018-10-21T04:13:10.401Z,17.77
2018-10-21T04:19:06.390Z,16.82
2018-10-21T04:21:34.701Z,18.57
2018-10-21T04:24:03.040Z,18.80
2018-10-21T04:26:31.364Z,18.90
2018-10-21T04:28:59.730Z,20.68
2018-10-21T04:31:28.080Z,19.27
2018-10-21T04:33:56.494Z,18.50
2018-10-21T04:36:27.263Z,20.57
2018-10-21T04:40:08.238Z,20.27
2018-10-21T04:42:36.688Z,20.40
2018-10-21T04:45:05.654Z,18.90
2018-10-21T04:47:34.034Z,19.40
2018-10-21T04:50:02.383Z,20.55
2018-10-21T04:52:31.621Z,20.15
2018-10-21T04:55:05.340Z,19.67
2018-10-21T04:57:33.836Z,18.85
2018-10-21T05:00:02.280Z,19.92
2018-10-21T05:02:31.409Z,19.23
2018-10-21T05:05:00.032Z,18.95
2018-10-21T05:07:28.481Z,18.40
2018-10-21T05:09:56.771Z,18.05
2018-10-21T05:12:25.105Z,18.35
2018-10-21T05:14:53.443Z,16.70
2018-10-21T05:17:21.795Z,17.30
2018-10-21T05:19:50.175Z,17.77
2018-10-21T05:22:18.553Z,18.65
2018-10-21T05:24:46.857Z,17.87
2018-10-21T05:27:15.215Z,17.95
2018-10-21T05:29:43.532Z,17.77
2018-10-21T05:32:11.884Z,18.77
2018-10-21T05:34:40.204Z,18.52
2018-10-21T05:37:08.596Z,18.67
2018-10-21T05:39:36.953Z,18.75
2018-10-21T05:42:05.273Z,18.45
2018-10-21T05:44:33.612Z,17.85
2018-10-21T05:47:01.951Z,18.23
2018-10-21T05:49:30.274Z,19.05
2018-10-21T05:51:58.611Z,18.45
2018-10-21T05:54:26.912Z,18.55
2018-10-21T05:56:55.260Z,17.55
2018-10-21T05:59:23.609Z,19.05
2018-10-21T06:01:51.968Z,19.50
2018-10-21T06:04:20.297Z,20.15
2018-10-21T06:06:48.648Z,19.85
2018-10-21T06:09:16.997Z,19.25
2018-10-21T06:11:45.353Z,20.40
2018-10-21T06:14:13.738Z,16.93
2018-10-21T06:16:46.436Z,16.45
2018-10-21T06:20:18.171Z,17.50
2018-10-21T06:22:46.996Z,17.32
2018-10-21T06:25:15.374Z,18.52
2018-10-21T06:27:43.782Z,18.57
2018-10-21T06:30:12.672Z,19.15
2018-10-21T06:32:41.295Z,18.50
2018-10-21T06:35:10.211Z,18.48
2018-10-21T06:37:38.877Z,19.25
2018-10-21T06:40:08.756Z,19.02
2018-10-21T06:42:37.186Z,19.77
2018-10-21T06:45:06.661Z,19.45
2018-10-21T06:47:35.015Z,19.65
2018-10-21T06:50:03.488Z,19.23
2018-10-21T06:52:31.826Z,20.30
2018-10-21T06:55:00.242Z,20.85
2018-10-21T06:57:28.749Z,19.42
2018-10-21T06:59:56.973Z,18.15
2018-10-21T07:02:25.373Z,20.45
2018-10-21T07:04:53.736Z,18.85
2018-10-21T07:07:22.060Z,18.37
2018-10-21T07:09:50.364Z,19.85
2018-10-21T07:12:18.722Z,20.23
2018-10-21T07:14:47.080Z,20.00
2018-10-21T07:17:15.405Z,19.70
2018-10-21T07:19:43.821Z,19.30
2018-10-21T07:22:12.264Z,18.50
2018-10-21T07:24:40.516Z,18.67
2018-10-21T07:27:08.864Z,19.17
2018-10-21T07:29:37.174Z,19.67
2018-10-21T07:32:10.398Z,19.60
2018-10-21T07:34:38.953Z,19.57
2018-10-21T07:37:07.308Z,19.00
2018-10-21T07:39:41.539Z,18.85
2018-10-21T07:42:09.908Z,18.95
2018-10-21T07:44:38.240Z,19.25
2018-10-21T07:47:06.605Z,19.48
2018-10-21T07:49:34.954Z,19.87
2018-10-21T07:52:03.492Z,20.20
2018-10-21T07:54:31.879Z,20.15
2018-10-21T07:57:00.249Z,20.17
2018-10-21T07:59:28.616Z,19.35
2018-10-21T08:01:57.037Z,21.12
2018-10-21T08:04:25.409Z,21.25
2018-10-21T08:07:05.180Z,20.08
2018-10-21T08:09:33.533Z,20.90
2018-10-21T08:12:01.895Z,20.50
2018-10-21T08:14:30.242Z,24.80
2018-10-21T08:16:58.621Z,28.20
2018-10-21T08:19:26.948Z,20.27
2018-10-21T08:21:55.285Z,21.80
2018-10-21T08:24:23.712Z,20.90
2018-10-21T08:26:52.201Z,19.97
2018-10-21T08:29:20.568Z,19.30
2018-10-21T08:31:48.972Z,19.10
2018-10-21T08:34:17.335Z,19.60
2018-10-21T08:36:45.640Z,18.87
2018-10-21T08:39:14.031Z,18.32
2018-10-21T08:41:42.388Z,18.70
2018-10-21T08:44:10.777Z,18.48
2018-10-21T08:46:39.219Z,18.50
2018-10-21T08:49:07.616Z,18.23
2018-10-21T08:51:35.968Z,18.57
2018-10-21T08:54:04.405Z,17.23
2018-10-21T08:56:32.787Z,18.10
2018-10-21T08:59:01.205Z,18.70
2018-10-21T09:01:29.578Z,18.80
2018-10-21T09:03:57.967Z,17.40
2018-10-21T09:06:26.348Z,18.33
2018-10-21T09:08:54.747Z,16.60
2018-10-21T09:11:24.061Z,17.23
2018-10-21T09:13:52.408Z,18.30
2018-10-21T09:16:21.075Z,16.90
2018-10-21T09:18:50.029Z,17.80
2018-10-21T09:21:18.617Z,17.47
2018-10-21T09:23:47.107Z,17.17
2018-10-21T09:26:15.456Z,18.57
2018-10-21T09:28:43.994Z,17.13
2018-10-21T09:31:13.861Z,17.23
2018-10-21T09:33:43.018Z,17.47
2018-10-21T09:36:13.357Z,16.90
2018-10-21T09:38:41.708Z,16.83
2018-10-21T09:41:10.098Z,17.57
2018-10-21T09:43:38.491Z,16.97
2018-10-21T09:46:06.965Z,17.23
2018-10-21T09:48:35.308Z,16.60
2018-10-21T09:51:03.685Z,16.87
2018-10-21T09:53:32.039Z,17.27
2018-10-21T09:56:00.412Z,16.93
2018-10-21T09:58:28.797Z,18.03
2018-10-21T10:01:02.396Z,17.40
2018-10-21T10:03:30.705Z,16.17
2018-10-21T10:05:59.075Z,18.00
2018-10-21T10:08:27.457Z,17.17
2018-10-21T10:10:55.773Z,16.43
2018-10-21T10:13:24.116Z,15.37
2018-10-21T10:15:52.462Z,15.10
2018-10-21T10:18:20.842Z,15.60
2018-10-21T10:20:49.245Z,14.80
2018-10-21T10:23:17.793Z,15.13
2018-10-21T10:25:46.128Z,12.87
2018-10-21T10:28:14.663Z,13.07
2018-10-21T10:30:42.990Z,12.50
2018-10-21T10:33:11.365Z,12.60
2018-10-21T10:35:39.792Z,11.50
2018-10-21T10:38:08.176Z,11.70
2018-10-21T10:40:36.578Z,11.10
2018-10-21T10:43:04.994Z,11.17
2018-10-21T10:45:33.360Z,9.80
2018-10-21T10:48:01.789Z,10.83
2018-10-21T10:50:30.213Z,10.40
2018-10-21T10:52:59.389Z,10.30
2018-10-21T10:55:33.046Z,10.30
2018-10-21T10:58:01.444Z,9.40
2018-10-21T11:00:29.829Z,8.83
2018-10-21T11:02:58.429Z,9.10
2018-10-21T11:05:26.795Z,8.40
2018-10-21T11:07:55.235Z,8.80
2018-10-21T11:10:23.609Z,9.20
2018-10-21T11:12:52.014Z,9.10
2018-10-21T11:15:20.348Z,9.30
2018-10-21T11:17:48.718Z,8.00
2018-10-21T11:20:17.070Z,6.77
2018-10-21T11:22:45.495Z,6.97
2018-10-21T11:25:13.924Z,7.23
2018-10-21T11:27:42.332Z,7.90
2018-10-21T11:30:10.791Z,7.10
2018-10-21T11:32:39.191Z,7.03
2018-10-21T11:35:07.654Z,6.20
2018-10-21T11:37:36.127Z,6.47
2018-10-21T11:40:04.518Z,6.03
2018-10-21T11:42:32.850Z,6.73
2018-10-21T11:45:01.333Z,5.77
2018-10-21T11:47:29.702Z,5.77
2018-10-21T11:49:58.069Z,5.53
2018-10-21T11:52:26.431Z,4.57
2018-10-21T11:54:54.905Z,5.17
2018-10-21T11:57:23.576Z,4.63
2018-10-21T11:59:52.058Z,4.90
2018-10-21T12:02:20.457Z,3.80
2018-10-21T12:04:48.929Z,4.20
2018-10-21T12:07:17.361Z,3.97
2018-10-21T12:09:45.635Z,3.90
2018-10-21T12:12:13.980Z,3.63
2018-10-21T12:14:42.338Z,3.60
2018-10-21T12:17:10.705Z,3.17
2018-10-21T12:19:39.044Z,2.87
2018-10-21T12:22:07.423Z,3.50
2018-10-21T12:24:35.783Z,2.70
2018-10-21T12:27:04.176Z,2.53
2018-10-21T12:29:32.537Z,2.97
2018-10-21T12:32:00.912Z,3.10
2018-10-21T12:34:29.260Z,3.40
2018-10-21T12:36:57.714Z,3.23
2018-10-21T12:39:26.005Z,3.00
2018-10-21T12:41:54.437Z,2.70
2018-10-21T12:44:22.765Z,2.50
2018-10-21T12:46:51.165Z,2.80
2018-10-21T12:49:19.600Z,3.20
2018-10-21T12:51:47.999Z,3.17
2018-10-21T12:54:16.499Z,3.10
2018-10-21T12:56:44.786Z,3.10
2018-10-21T12:59:13.204Z,3.20
2018-10-21T13:01:41.695Z,3.07
2018-10-21T13:04:10.113Z,2.53
2018-10-21T13:06:38.488Z,3.10
2018-10-21T13:09:07.724Z,2.97
2018-10-21T13:11:36.084Z,2.90
2018-10-21T13:14:04.488Z,3.23
2018-10-21T13:16:32.883Z,3.10
2018-10-21T13:19:01.279Z,2.93
2018-10-21T13:21:29.645Z,2.93
2018-10-21T13:23:57.985Z,3.50
2018-10-21T13:26:26.373Z,3.43
2018-10-21T13:28:54.752Z,3.70
2018-10-21T13:31:23.160Z,3.10
2018-10-21T13:33:51.576Z,3.40
2018-10-21T13:36:19.912Z,3.30
2018-10-21T13:38:48.321Z,3.30
2018-10-21T13:41:16.724Z,3.77
2018-10-21T13:43:45.076Z,3.57
2018-10-21T13:46:13.526Z,3.57
2018-10-21T13:48:41.978Z,3.50
2018-10-21T13:51:10.365Z,3.60
2018-10-21T13:53:38.783Z,3.70
2018-10-21T13:56:07.142Z,3.73
2018-10-21T13:58:35.506Z,3.73
2018-10-21T14:01:04.020Z,3.70
2018-10-21T14:03:32.397Z,3.70
2018-10-21T14:06:00.762Z,3.80
2018-10-21T14:08:29.090Z,4.23
2018-10-21T14:10:57.477Z,3.80
2018-10-21T14:13:25.857Z,3.53
2018-10-21T14:15:54.212Z,3.50
2018-10-21T14:18:22.588Z,3.27
2018-10-21T14:20:50.991Z,3.70
2018-10-21T14:23:19.352Z,3.90
2018-10-21T14:25:47.760Z,3.57
2018-10-21T14:28:16.091Z,3.63
2018-10-21T14:30:44.490Z,3.33
2018-10-21T14:33:12.861Z,3.77
2018-10-21T14:35:41.171Z,3.70
2018-10-21T14:38:09.605Z,3.60
2018-10-21T14:40:37.932Z,4.00
2018-10-21T14:43:06.341Z,3.43
2018-10-21T14:45:35.066Z,3.60
2018-10-21T14:48:03.465Z,3.90
2018-10-21T14:50:31.860Z,3.63
2018-10-21T14:53:00.223Z,3.40
2018-10-21T14:55:28.652Z,4.43
2018-10-21T14:57:57.135Z,3.77
2018-10-21T15:00:25.776Z,4.13
2018-10-21T15:02:54.117Z,3.33
2018-10-21T15:05:22.468Z,4.23
2018-10-21T15:07:50.877Z,3.63
2018-10-21T15:10:19.270Z,3.77
2018-10-21T15:12:47.628Z,3.50
2018-10-21T15:15:15.980Z,3.27
2018-10-21T15:17:44.360Z,3.33
2018-10-21T15:20:13.681Z,3.07
2018-10-21T15:22:42.020Z,3.90
2018-10-21T15:25:11.479Z,3.37
2018-10-21T15:27:40.298Z,3.60
2018-10-21T15:30:09.557Z,3.70
2018-10-21T15:32:37.972Z,3.50
2018-10-21T15:35:06.640Z,3.73
2018-10-21T15:37:35.066Z,3.50
2018-10-21T15:40:03.511Z,3.33
2018-10-21T15:42:31.844Z,3.40
2018-10-21T15:45:00.175Z,3.53
2018-10-21T15:47:28.521Z,3.93
2018-10-21T15:49:56.933Z,3.23
2018-10-21T15:52:25.303Z,3.73
2018-10-21T15:54:53.704Z,3.27
2018-10-21T15:57:22.107Z,3.50
2018-10-21T15:59:50.460Z,3.20
2018-10-21T16:02:19.291Z,3.13
2018-10-21T16:04:47.472Z,3.00
2018-10-21T16:07:15.985Z,2.87
2018-10-21T16:09:44.310Z,2.50
2018-10-21T16:12:12.709Z,2.90
2018-10-21T16:14:41.070Z,2.87
2018-10-21T16:17:09.520Z,3.47
2018-10-21T16:19:37.992Z,2.50
2018-10-21T16:22:06.488Z,2.80
2018-10-21T16:24:34.817Z,2.90
2018-10-21T16:27:03.230Z,3.10
2018-10-21T16:29:31.601Z,2.90
2018-10-21T16:32:00.125Z,3.30
2018-10-21T16:34:28.366Z,3.07
2018-10-21T16:36:56.746Z,2.80
2018-10-21T16:39:25.131Z,4.00
2018-10-21T16:41:53.512Z,3.67
2018-10-21T16:44:21.878Z,4.80
2018-10-21T16:46:50.244Z,4.63
2018-10-21T16:49:18.620Z,5.40
2018-10-21T16:51:47.019Z,5.13
2018-10-21T16:54:15.407Z,5.57
2018-10-21T16:56:43.807Z,5.50
2018-10-21T16:59:12.173Z,5.60
2018-10-21T17:01:40.503Z,6.30
2018-10-21T17:04:09.043Z,6.30
2018-10-21T17:06:37.419Z,7.10
2018-10-21T17:09:09.406Z,7.43
2018-10-21T17:11:37.696Z,6.70
2018-10-21T17:14:06.309Z,5.10
2018-10-21T17:16:34.758Z,5.93
2018-10-21T17:19:03.249Z,9.67
2018-10-21T17:21:31.568Z,10.50
2018-10-21T17:24:00.073Z,11.27
2018-10-21T17:26:28.538Z,12.93
2018-10-21T17:28:57.134Z,10.10
2018-10-21T17:31:25.574Z,9.27
2018-10-21T17:33:54.161Z,8.53
2018-10-21T17:36:22.676Z,6.90
2018-10-21T17:38:51.420Z,6.90
2018-10-21T17:41:20.486Z,6.13
2018-10-21T17:43:48.962Z,5.10
2018-10-21T17:46:17.639Z,4.20
2018-10-21T17:48:52.804Z,4.30
2018-10-21T17:51:21.182Z,4.20
2018-10-21T17:53:49.645Z,4.90
2018-10-21T17:56:17.997Z,4.40
2018-10-21T17:58:46.567Z,5.30
2018-10-21T18:01:15.154Z,6.60
2018-10-21T18:09:32.800Z,6.80
2018-10-21T18:12:21.027Z,5.63
2018-10-21T18:14:49.600Z,4.63
2018-10-21T18:17:18.015Z,4.70
2018-10-21T18:19:47.437Z,4.50
2018-10-21T18:22:22.260Z,4.80
2018-10-21T18:28:12.393Z,4.30
2018-10-21T18:31:08.851Z,4.80
2018-10-21T18:33:44.320Z,4.90
2018-10-21T18:39:08.745Z,8.53
2018-10-21T18:41:45.842Z,7.27
2018-10-21T18:44:32.378Z,7.00
2018-10-21T18:50:41.173Z,6.10
2018-10-21T18:53:09.544Z,6.10
2018-10-21T18:55:37.947Z,6.00
2018-10-21T18:58:06.473Z,4.50
2018-10-21T19:00:34.842Z,3.87
2018-10-21T19:03:03.217Z,4.00
2018-10-21T19:05:31.580Z,3.60
2018-10-21T19:08:00.018Z,3.23
2018-10-21T19:10:28.381Z,4.93
2018-10-21T19:13:00.056Z,5.00
2018-10-21T19:15:25.136Z,4.80
2018-10-21T19:17:53.572Z,4.00
2018-10-21T19:20:22.006Z,4.47
2018-10-21T19:22:50.420Z,4.20
2018-10-21T19:25:18.844Z,4.10
2018-10-21T19:27:47.376Z,4.37
2018-10-21T19:30:16.130Z,4.90
2018-10-21T19:32:44.669Z,3.93
2018-10-21T19:35:13.912Z,4.40
2018-10-21T19:37:42.302Z,3.93
2018-10-21T19:40:12.372Z,4.30
2018-10-21T19:42:41.364Z,5.10
2018-10-21T19:45:10.806Z,5.17
2018-10-21T19:47:39.405Z,5.60
2018-10-21T19:50:09.647Z,7.30
2018-10-21T19:52:38.191Z,5.63
2018-10-21T19:55:06.609Z,5.40
2018-10-21T19:57:35.056Z,5.10
2018-10-21T20:00:03.881Z,5.80
2018-10-21T20:02:32.268Z,5.63
2018-10-21T20:05:00.637Z,5.40
2018-10-21T20:07:29.024Z,5.50
2018-10-21T20:09:57.415Z,5.80
2018-10-21T20:12:25.749Z,6.50
2018-10-21T20:14:54.091Z,7.10
2018-10-21T20:17:22.486Z,5.93
2018-10-21T20:19:50.890Z,5.53
2018-10-21T20:22:19.285Z,5.10
2018-10-21T20:24:47.686Z,4.97
2018-10-21T20:27:16.085Z,5.17
2018-10-21T20:29:44.468Z,5.10
2018-10-21T20:32:12.864Z,5.73
2018-10-21T20:34:41.251Z,5.07
2018-10-21T20:37:09.633Z,5.03
2018-10-21T20:39:38.143Z,5.43
2018-10-21T20:42:06.582Z,5.10
2018-10-21T20:44:35.002Z,5.00
2018-10-21T20:47:03.391Z,5.37
2018-10-21T20:49:31.748Z,5.43
2018-10-21T20:52:00.126Z,5.60
2018-10-21T20:54:33.798Z,4.90
2018-10-21T20:57:09.785Z,5.20
2018-10-21T20:59:39.464Z,5.90
2018-10-21T21:02:08.778Z,6.53
2018-10-21T21:04:37.558Z,5.80
2018-10-21T21:07:06.348Z,4.90
2018-10-21T21:09:34.694Z,5.70
2018-10-21T21:12:03.280Z,6.40
2018-10-21T21:14:31.867Z,5.40
2018-10-21T21:17:00.237Z,5.97
2018-10-21T21:19:28.628Z,5.70
2018-10-21T21:21:56.974Z,6.13
2018-10-21T21:24:25.605Z,6.50
2018-10-21T21:26:53.991Z,6.40
2018-10-21T21:29:22.379Z,6.63
2018-10-21T21:31:50.747Z,6.30
2018-10-21T21:34:19.145Z,6.53
2018-10-21T21:36:47.529Z,6.73
2018-10-21T21:39:16.338Z,6.20
2018-10-21T21:41:45.886Z,6.97
2018-10-21T21:44:14.279Z,7.20
2018-10-21T21:46:43.124Z,6.70
2018-10-21T21:49:12.560Z,6.83
2018-10-21T21:51:40.969Z,6.60
2018-10-21T21:54:11.176Z,6.43
2018-10-21T21:56:39.814Z,6.90
2018-10-21T21:59:08.509Z,6.00
2018-10-21T22:01:36.929Z,6.97
2018-10-21T22:04:05.709Z,7.30
2018-10-21T22:06:34.067Z,6.73
2018-10-21T22:09:02.493Z,6.80
2018-10-21T22:11:30.831Z,5.57
2018-10-21T22:13:59.389Z,6.73
2018-10-21T22:16:27.743Z,6.30
2018-10-21T22:18:56.108Z,6.78
2018-10-21T22:21:24.532Z,6.70
2018-10-21T22:23:52.929Z,6.42
2018-10-21T22:26:21.293Z,6.17
2018-10-21T22:28:49.648Z,6.43
2018-10-21T22:31:18.000Z,6.20
2018-10-21T22:33:46.345Z,6.00
2018-10-21T22:36:14.742Z,5.92
2018-10-21T22:38:43.077Z,6.17
2018-10-21T22:41:11.458Z,7.20
2018-10-21T22:43:39.833Z,6.97
2018-10-21T22:46:08.302Z,6.97
2018-10-21T22:48:36.653Z,7.60
2018-10-21T22:51:05.629Z,7.03
2018-10-21T22:53:33.989Z,7.22
2018-10-21T22:56:02.379Z,6.50
2018-10-21T22:58:30.732Z,6.53
2018-10-21T23:00:59.070Z,6.33
2018-10-21T23:03:27.445Z,6.77
2018-10-21T23:05:55.802Z,7.70
2018-10-21T23:08:24.171Z,7.30
2018-10-21T23:10:52.552Z,7.60
2018-10-21T23:13:20.914Z,7.72
2018-10-21T23:15:49.291Z,7.92
2018-10-21T23:18:17.749Z,6.22
2018-10-21T23:20:46.073Z,6.60
2018-10-21T23:23:14.453Z,6.50
2018-10-21T23:25:42.836Z,8.48
2018-10-21T23:28:11.230Z,7.67
2018-10-21T23:30:39.555Z,6.75
2018-10-21T23:33:07.931Z,7.58
2018-10-21T23:35:36.321Z,6.47
2018-10-21T23:38:05.044Z,7.50
2018-10-21T23:40:33.404Z,6.60
2018-10-21T23:43:01.901Z,6.85
2018-10-21T23:45:30.242Z,6.62
2018-10-21T23:47:58.653Z,6.97
2018-10-21T23:50:26.976Z,7.75
2018-10-21T23:52:55.345Z,7.08
2018-10-21T23:55:23.736Z,6.70
2018-10-21T23:57:52.123Z,6.80
